createdAt,value
2018-08-31T00:00:11.936Z,2.93
2018-08-31T00:02:45.885Z,2.20
2018-08-31T00:05:52.966Z,2.00
2018-08-31T00:08:46.765Z,1.83
2018-08-31T00:11:42.256Z,2.33
2018-08-31T00:14:10.565Z,2.33
2018-08-31T00:16:39.925Z,2.57
2018-08-31T00:19:09.284Z,1.77
2018-08-31T00:21:37.601Z,1.97
2018-08-31T00:24:17.333Z,2.30
2018-08-31T00:26:56.937Z,2.63
2018-08-31T00:29:37.315Z,1.93
2018-08-31T00:34:26.168Z,3.00
2018-08-31T00:37:06.217Z,1.80
2018-08-31T00:41:53.789Z,2.37
2018-08-31T00:45:29.677Z,2.10
2018-08-31T00:47:59.005Z,2.30
2018-08-31T00:50:28.561Z,2.43
2018-08-31T00:52:57.206Z,2.10
2018-08-31T00:55:26.617Z,2.30
2018-08-31T00:57:54.919Z,2.67
2018-08-31T01:00:23.202Z,2.63
2018-08-31T01:02:51.485Z,3.60
2018-08-31T01:05:19.985Z,2.10
2018-08-31T01:07:48.757Z,2.10
2018-08-31T01:10:19.418Z,2.30
2018-08-31T01:12:47.772Z,3.17
2018-08-31T01:15:16.105Z,2.70
2018-08-31T01:17:44.384Z,1.90
2018-08-31T01:20:12.697Z,2.40
2018-08-31T01:22:41.056Z,2.97
2018-08-31T01:25:10.501Z,2.80
2018-08-31T01:27:38.788Z,2.77
2018-08-31T01:30:08.690Z,2.13
2018-08-31T01:32:36.968Z,1.93
2018-08-31T01:35:05.317Z,2.27
2018-08-31T01:37:34.593Z,2.77
2018-08-31T01:40:02.944Z,2.93
2018-08-31T01:42:31.348Z,3.07
2018-08-31T01:45:01.065Z,2.80
2018-08-31T01:47:29.338Z,2.83
2018-08-31T01:49:57.622Z,3.10
2018-08-31T01:52:25.950Z,2.60
2018-08-31T01:54:54.278Z,3.03
2018-08-31T01:57:22.667Z,2.13
2018-08-31T01:59:50.965Z,3.47
2018-08-31T02:02:20.470Z,2.80
2018-08-31T02:04:48.764Z,2.17
2018-08-31T02:07:18.168Z,3.00
2018-08-31T02:09:47.612Z,2.97
2018-08-31T02:12:16.018Z,3.13
2018-08-31T02:14:44.287Z,3.13
2018-08-31T02:17:12.613Z,2.40
2018-08-31T02:19:40.901Z,3.50
2018-08-31T02:22:11.387Z,2.53
2018-08-31T02:24:39.826Z,2.77
2018-08-31T02:27:09.275Z,3.00
2018-08-31T02:29:37.586Z,2.43
2018-08-31T02:32:06.045Z,2.43
2018-08-31T02:34:34.317Z,2.83
2018-08-31T02:37:02.628Z,2.87
2018-08-31T02:39:30.910Z,2.43
2018-08-31T02:41:59.233Z,3.10
2018-08-31T02:44:27.533Z,2.50
2018-08-31T02:46:55.801Z,3.57
2018-08-31T02:49:24.106Z,3.00
2018-08-31T02:51:53.459Z,2.60
2018-08-31T02:54:21.793Z,2.87
2018-08-31T02:56:50.161Z,2.53
2018-08-31T02:59:18.566Z,2.77
2018-08-31T03:01:46.872Z,3.00
2018-08-31T03:04:15.274Z,2.43
2018-08-31T03:06:43.541Z,2.40
2018-08-31T03:09:12.185Z,3.53
2018-08-31T03:11:40.546Z,2.93
2018-08-31T03:14:08.786Z,3.47
2018-08-31T03:16:37.043Z,3.00
2018-08-31T03:19:05.389Z,3.13
2018-08-31T03:21:33.637Z,2.63
2018-08-31T03:24:01.937Z,2.27
2018-08-31T03:26:30.189Z,2.30
2018-08-31T03:28:58.590Z,2.40
2018-08-31T03:31:26.863Z,2.83
2018-08-31T03:33:56.172Z,3.40
2018-08-31T03:36:24.518Z,3.23
2018-08-31T03:38:52.817Z,2.90
2018-08-31T03:41:21.084Z,2.80
2018-08-31T03:43:50.384Z,2.20
2018-08-31T03:46:18.649Z,2.63
2018-08-31T03:48:46.965Z,2.40
2018-08-31T03:51:15.328Z,2.50
2018-08-31T03:53:43.607Z,2.27
2018-08-31T03:56:11.894Z,2.60
2018-08-31T03:58:40.151Z,3.23
2018-08-31T04:01:08.450Z,2.53
2018-08-31T04:03:37.718Z,2.53
2018-08-31T04:06:06.107Z,2.33
2018-08-31T04:08:34.375Z,3.27
2018-08-31T04:11:02.644Z,2.30
2018-08-31T04:13:30.921Z,2.20
2018-08-31T04:15:59.228Z,2.70
2018-08-31T04:18:27.471Z,1.83
2018-08-31T04:20:55.729Z,2.67
2018-08-31T04:23:24.126Z,2.70
2018-08-31T04:25:52.405Z,2.60
2018-08-31T04:28:20.765Z,2.77
2018-08-31T04:30:49.100Z,2.77
2018-08-31T04:33:17.376Z,2.50
2018-08-31T04:35:46.850Z,3.40
2018-08-31T04:38:15.135Z,3.13
2018-08-31T04:40:43.550Z,2.67
2018-08-31T04:43:11.828Z,2.80
2018-08-31T04:45:40.097Z,2.37
2018-08-31T04:48:08.381Z,3.20
2018-08-31T04:50:36.621Z,2.60
2018-08-31T04:53:06.137Z,2.70
2018-08-31T04:55:34.395Z,2.10
2018-08-31T04:58:02.732Z,2.30
2018-08-31T05:00:30.981Z,2.80
2018-08-31T05:02:59.257Z,3.77
2018-08-31T05:05:27.505Z,2.13
2018-08-31T05:07:55.769Z,2.80
2018-08-31T05:10:24.352Z,2.50
2018-08-31T05:12:52.745Z,3.03
2018-08-31T05:15:21.009Z,3.00
2018-08-31T05:17:49.417Z,3.07
2018-08-31T05:20:17.675Z,3.30
2018-08-31T05:22:46.134Z,3.27
2018-08-31T05:25:14.361Z,2.70
2018-08-31T05:27:42.627Z,2.60
2018-08-31T05:30:11.001Z,2.73
2018-08-31T05:32:39.385Z,2.80
2018-08-31T05:35:07.737Z,2.50
2018-08-31T05:37:36.009Z,2.57
2018-08-31T05:40:04.321Z,4.17
2018-08-31T05:42:32.596Z,3.77
2018-08-31T05:45:01.974Z,3.00
2018-08-31T05:47:30.249Z,3.67
2018-08-31T05:49:58.533Z,2.63
2018-08-31T05:52:27.378Z,3.20
2018-08-31T05:54:55.697Z,2.73
2018-08-31T05:57:23.941Z,2.70
2018-08-31T05:59:52.239Z,2.50
2018-08-31T06:02:20.763Z,3.17
2018-08-31T06:04:48.793Z,2.80
2018-08-31T06:07:18.084Z,3.00
2018-08-31T06:09:46.461Z,2.77
2018-08-31T06:12:14.740Z,2.30
2018-08-31T06:14:44.053Z,2.60
2018-08-31T06:17:12.349Z,2.83
2018-08-31T06:19:40.702Z,2.50
2018-08-31T06:22:11.037Z,2.90
2018-08-31T06:24:39.401Z,2.73
2018-08-31T06:27:09.842Z,2.93
2018-08-31T06:29:38.121Z,5.50
2018-08-31T06:32:06.418Z,3.17
2018-08-31T06:34:34.777Z,2.70
2018-08-31T06:37:04.057Z,3.20
2018-08-31T06:39:32.322Z,2.33
2018-08-31T06:42:00.593Z,2.40
2018-08-31T06:44:29.895Z,3.57
2018-08-31T06:46:58.191Z,2.63
2018-08-31T06:49:27.605Z,3.07
2018-08-31T06:51:55.877Z,2.80
2018-08-31T06:54:24.427Z,3.17
2018-08-31T06:56:52.753Z,3.27
2018-08-31T06:59:21.022Z,3.17
2018-08-31T07:01:49.386Z,3.10
2018-08-31T07:04:17.817Z,3.90
2018-08-31T07:06:47.181Z,7.63
2018-08-31T07:09:15.437Z,13.93
2018-08-31T07:11:43.738Z,14.57
2018-08-31T07:14:12.025Z,7.60
2018-08-31T07:16:40.397Z,4.90
2018-08-31T07:19:08.644Z,5.90
2018-08-31T07:21:36.929Z,5.40
2018-08-31T07:24:05.221Z,9.50
2018-08-31T07:26:33.619Z,6.30
2018-08-31T07:29:01.789Z,7.37
2018-08-31T07:31:30.122Z,4.97
2018-08-31T07:33:58.401Z,3.23
2018-08-31T07:36:26.699Z,3.27
2018-08-31T07:38:55.057Z,4.33
2018-08-31T07:41:23.344Z,3.50
2018-08-31T07:43:51.812Z,5.00
2018-08-31T07:46:20.164Z,3.77
2018-08-31T07:48:48.586Z,4.93
2018-08-31T07:51:16.859Z,4.60
2018-08-31T07:53:45.182Z,5.80
2018-08-31T07:56:14.536Z,7.80
2018-08-31T07:58:42.876Z,8.10
2018-08-31T08:01:12.158Z,6.40
2018-08-31T08:03:40.505Z,3.63
2018-08-31T08:06:08.765Z,3.50
2018-08-31T08:08:37.066Z,4.80
2018-08-31T08:11:05.333Z,3.80
2018-08-31T08:13:33.690Z,3.00
2018-08-31T08:16:01.969Z,3.80
2018-08-31T08:18:30.365Z,4.03
2018-08-31T08:20:58.641Z,3.57
2018-08-31T08:23:27.254Z,2.43
2018-08-31T08:25:55.527Z,3.83
2018-08-31T08:28:23.883Z,3.67
2018-08-31T08:30:52.385Z,5.10
2018-08-31T08:33:20.633Z,3.70
2018-08-31T08:35:49.155Z,3.10
2018-08-31T08:38:17.439Z,4.33
2018-08-31T08:40:45.737Z,3.40
2018-08-31T08:43:14.011Z,4.23
2018-08-31T08:45:43.348Z,4.60
2018-08-31T08:48:12.721Z,4.30
2018-08-31T08:50:41.064Z,3.20
2018-08-31T08:53:09.310Z,4.37
2018-08-31T08:55:42.557Z,3.97
2018-08-31T08:58:11.870Z,4.10
2018-08-31T09:00:40.190Z,3.93
2018-08-31T09:03:08.478Z,4.20
2018-08-31T09:05:36.850Z,5.73
2018-08-31T09:08:05.275Z,4.27
2018-08-31T09:10:33.557Z,4.13
2018-08-31T09:13:01.815Z,4.20
2018-08-31T09:15:30.112Z,3.40
2018-08-31T09:17:58.612Z,4.17
2018-08-31T09:20:26.998Z,4.57
2018-08-31T09:22:55.273Z,4.30
2018-08-31T09:25:23.576Z,4.27
2018-08-31T09:27:51.865Z,4.50
2018-08-31T09:30:25.612Z,4.60
2018-08-31T09:32:53.994Z,5.10
2018-08-31T09:35:22.501Z,4.03
2018-08-31T09:37:50.853Z,4.50
2018-08-31T09:40:19.174Z,4.20
2018-08-31T09:42:47.449Z,5.00
2018-08-31T09:45:16.810Z,5.37
2018-08-31T09:47:46.214Z,3.73
2018-08-31T09:50:15.477Z,4.23
2018-08-31T09:52:43.793Z,4.87
2018-08-31T09:55:12.109Z,4.53
2018-08-31T09:57:41.605Z,4.50
2018-08-31T10:00:09.885Z,4.93
2018-08-31T10:02:39.824Z,4.50
2018-08-31T10:05:08.778Z,4.60
2018-08-31T10:07:37.069Z,4.50
2018-08-31T10:10:05.356Z,5.17
2018-08-31T10:12:33.673Z,6.07
2018-08-31T10:15:01.954Z,5.87
2018-08-31T10:17:30.258Z,4.20
2018-08-31T10:19:58.579Z,4.60
2018-08-31T10:22:29.007Z,4.90
2018-08-31T10:24:58.303Z,5.03
2018-08-31T10:27:26.601Z,5.00
2018-08-31T10:29:55.657Z,4.70
2018-08-31T10:32:23.977Z,4.13
2018-08-31T10:34:52.314Z,5.07
2018-08-31T10:37:20.590Z,5.00
2018-08-31T10:39:49.940Z,4.43
2018-08-31T10:42:18.225Z,4.67
2018-08-31T10:44:46.499Z,4.70
2018-08-31T10:47:14.853Z,4.80
2018-08-31T10:49:43.134Z,3.87
2018-08-31T10:52:11.453Z,5.17
2018-08-31T10:54:39.769Z,3.87
2018-08-31T10:57:09.086Z,4.70
2018-08-31T10:59:37.394Z,4.50
2018-08-31T11:02:05.709Z,3.60
2018-08-31T11:04:34.275Z,4.27
2018-08-31T11:07:03.623Z,4.23
2018-08-31T11:09:33.008Z,5.13
2018-08-31T11:12:01.262Z,5.13
2018-08-31T11:14:29.533Z,4.87
2018-08-31T11:16:57.785Z,4.57
2018-08-31T11:19:26.071Z,4.43
2018-08-31T11:21:54.325Z,4.50
2018-08-31T11:24:22.613Z,5.53
2018-08-31T11:26:52.076Z,4.90
2018-08-31T11:29:20.445Z,4.10
2018-08-31T11:31:48.777Z,5.00
2018-08-31T11:34:17.064Z,4.30
2018-08-31T11:36:45.360Z,5.03
2018-08-31T11:39:13.637Z,4.53
2018-08-31T11:41:41.938Z,4.30
2018-08-31T11:44:10.645Z,4.57
2018-08-31T11:46:38.922Z,4.97
2018-08-31T11:49:07.195Z,3.53
2018-08-31T11:51:35.471Z,4.40
2018-08-31T11:54:03.745Z,4.17
2018-08-31T11:56:32.112Z,4.30
2018-08-31T11:59:00.374Z,4.30
2018-08-31T12:01:28.768Z,4.10
2018-08-31T12:03:56.997Z,4.90
2018-08-31T12:06:25.277Z,9.03
2018-08-31T12:08:53.545Z,5.50
2018-08-31T12:11:21.797Z,4.87
2018-08-31T12:13:51.105Z,5.40
2018-08-31T12:16:19.363Z,5.33
2018-08-31T12:18:47.629Z,5.50
2018-08-31T12:21:15.877Z,3.83
2018-08-31T12:23:44.149Z,5.40
2018-08-31T12:26:12.437Z,4.70
2018-08-31T12:28:40.723Z,5.90
2018-08-31T12:31:09.021Z,4.80
2018-08-31T12:33:37.316Z,4.87
2018-08-31T12:36:05.601Z,4.63
2018-08-31T12:38:35.882Z,4.47
2018-08-31T12:41:04.135Z,5.27
2018-08-31T12:43:32.422Z,4.80
2018-08-31T12:46:00.672Z,4.80
2018-08-31T12:48:28.948Z,5.00
2018-08-31T12:50:57.213Z,4.40
2018-08-31T12:53:25.497Z,4.23
2018-08-31T12:55:55.905Z,4.37
2018-08-31T12:58:25.260Z,3.90
2018-08-31T13:00:54.566Z,4.97
2018-08-31T13:03:22.828Z,4.10
2018-08-31T13:05:51.217Z,4.00
2018-08-31T13:08:20.504Z,4.40
2018-08-31T13:10:48.785Z,4.07
2018-08-31T13:13:17.059Z,4.03
2018-08-31T13:15:45.341Z,5.07
2018-08-31T13:18:13.589Z,4.57
2018-08-31T13:20:41.906Z,4.10
2018-08-31T13:23:10.179Z,4.20
2018-08-31T13:25:38.456Z,4.67
2018-08-31T13:28:06.746Z,4.37
2018-08-31T13:30:35.059Z,4.43
2018-08-31T13:33:03.480Z,4.83
2018-08-31T13:35:31.756Z,4.60
2018-08-31T13:38:00.033Z,5.10
2018-08-31T13:40:29.344Z,4.90
2018-08-31T13:42:57.594Z,4.63
2018-08-31T13:45:26.923Z,4.60
2018-08-31T13:47:56.186Z,4.07
2018-08-31T13:50:24.472Z,4.70
2018-08-31T13:52:52.785Z,4.30
2018-08-31T13:55:21.053Z,4.20
2018-08-31T13:57:49.537Z,4.90
2018-08-31T14:00:17.793Z,4.07
2018-08-31T14:02:46.069Z,4.73
2018-08-31T14:05:14.316Z,4.63
2018-08-31T14:07:42.607Z,4.90
2018-08-31T14:10:10.984Z,4.67
2018-08-31T14:12:39.317Z,3.50
2018-08-31T14:15:07.772Z,4.20
2018-08-31T14:17:36.089Z,4.57
2018-08-31T14:20:04.497Z,4.43
2018-08-31T14:22:32.780Z,4.47
2018-08-31T14:25:01.028Z,4.40
2018-08-31T14:27:29.361Z,4.60
2018-08-31T14:29:57.831Z,4.00
2018-08-31T14:32:25.934Z,5.80
2018-08-31T14:34:54.187Z,4.33
2018-08-31T14:37:26.416Z,4.83
2018-08-31T14:39:55.728Z,4.10
2018-08-31T14:42:25.161Z,4.27
2018-08-31T14:44:53.477Z,4.43
2018-08-31T14:47:21.894Z,3.97
2018-08-31T14:49:50.173Z,4.93
2018-08-31T14:52:18.409Z,5.07
2018-08-31T14:54:46.680Z,4.57
2018-08-31T14:57:16.021Z,4.13
2018-08-31T14:59:44.324Z,4.63
2018-08-31T15:02:14.614Z,4.50
2018-08-31T15:04:43.001Z,3.43
2018-08-31T15:07:11.250Z,4.60
2018-08-31T15:09:39.521Z,4.57
2018-08-31T15:12:07.772Z,4.30
2018-08-31T15:14:37.139Z,4.03
2018-08-31T15:17:05.617Z,5.13
2018-08-31T15:19:33.936Z,4.20
2018-08-31T15:22:02.210Z,3.70
2018-08-31T15:24:30.577Z,3.33
2018-08-31T15:26:59.833Z,3.60
2018-08-31T15:29:28.223Z,4.20
2018-08-31T15:31:56.613Z,3.80
2018-08-31T15:34:24.897Z,4.07
2018-08-31T15:36:53.241Z,3.70
2018-08-31T15:39:21.517Z,3.47
2018-08-31T15:41:49.792Z,3.93
2018-08-31T15:44:18.106Z,4.30
2018-08-31T15:46:46.397Z,4.03
2018-08-31T15:49:14.702Z,4.40
2018-08-31T15:51:44.045Z,3.27
2018-08-31T15:54:12.289Z,3.20
2018-08-31T15:56:40.613Z,3.13
2018-08-31T15:59:08.882Z,3.67
2018-08-31T16:01:37.207Z,3.27
2018-08-31T16:04:05.502Z,3.90
2018-08-31T16:06:33.797Z,4.33
2018-08-31T16:09:03.138Z,3.97
2018-08-31T16:11:31.474Z,3.60
2018-08-31T16:13:59.840Z,4.20
2018-08-31T16:16:28.145Z,3.70
2018-08-31T16:18:56.427Z,3.57
2018-08-31T16:21:24.725Z,3.93
2018-08-31T16:23:53.144Z,3.57
2018-08-31T16:26:25.945Z,2.90
2018-08-31T16:28:54.410Z,4.30
2018-08-31T16:31:22.729Z,4.37
2018-08-31T16:33:51.010Z,3.97
2018-08-31T16:36:19.339Z,3.90
2018-08-31T16:38:47.735Z,3.23
2018-08-31T16:41:16.000Z,4.17
2018-08-31T16:43:45.349Z,4.30
2018-08-31T16:46:13.612Z,4.40
2018-08-31T16:48:41.944Z,3.20
2018-08-31T16:51:10.198Z,3.30
2018-08-31T16:53:40.852Z,3.33
2018-08-31T16:56:09.119Z,3.00
2018-08-31T16:58:38.418Z,2.73
2018-08-31T17:01:07.002Z,4.10
2018-08-31T17:03:35.409Z,4.03
2018-08-31T17:06:04.736Z,3.87
2018-08-31T17:08:33.144Z,2.73
2018-08-31T17:11:02.497Z,3.37
2018-08-31T17:13:30.828Z,4.27
2018-08-31T17:16:00.241Z,3.33
2018-08-31T17:18:28.630Z,3.60
2018-08-31T17:20:56.913Z,3.57
2018-08-31T17:23:25.263Z,3.43
2018-08-31T17:25:53.542Z,3.33
2018-08-31T17:28:28.125Z,3.90
2018-08-31T17:31:01.790Z,2.97
2018-08-31T17:33:36.206Z,3.57
2018-08-31T17:36:13.901Z,3.30
2018-08-31T17:38:42.221Z,3.10
2018-08-31T17:41:11.664Z,3.43
2018-08-31T17:43:40.200Z,2.97
2018-08-31T17:46:10.585Z,2.67
2018-08-31T17:48:39.203Z,2.80
2018-08-31T17:51:07.148Z,2.90
2018-08-31T17:53:35.526Z,3.40
2018-08-31T17:56:03.881Z,3.53
2018-08-31T17:58:32.285Z,2.90
2018-08-31T18:01:00.629Z,4.23
2018-08-31T18:03:28.989Z,4.30
2018-08-31T18:05:57.309Z,3.90
2018-08-31T18:08:25.825Z,3.20
2018-08-31T18:10:54.128Z,3.13
2018-08-31T18:13:22.546Z,3.50
2018-08-31T18:15:50.936Z,4.10
2018-08-31T18:18:19.259Z,4.27
2018-08-31T18:20:47.653Z,5.07
2018-08-31T18:23:16.162Z,4.73
2018-08-31T18:25:45.639Z,4.10
2018-08-31T18:28:13.921Z,4.07
2018-08-31T18:30:42.249Z,3.40
2018-08-31T18:33:10.639Z,3.70
2018-08-31T18:35:39.980Z,4.63
2018-08-31T18:38:08.185Z,3.90
2018-08-31T18:40:36.561Z,4.43
2018-08-31T18:43:06.801Z,4.10
2018-08-31T18:45:35.057Z,3.63
2018-08-31T18:48:03.353Z,3.77
2018-08-31T18:50:31.633Z,3.33
2018-08-31T18:52:59.931Z,4.00
2018-08-31T18:55:28.243Z,4.47
2018-08-31T18:57:56.619Z,3.37
2018-08-31T19:00:24.817Z,3.70
2018-08-31T19:02:53.087Z,3.83
2018-08-31T19:05:21.345Z,4.37
2018-08-31T19:07:49.669Z,3.50
2018-08-31T19:10:17.939Z,3.80
2018-08-31T19:12:46.276Z,3.87
2018-08-31T19:15:14.513Z,3.27
2018-08-31T19:17:42.842Z,3.60
2018-08-31T19:20:11.157Z,4.20
2018-08-31T19:22:39.464Z,3.60
2018-08-31T19:25:07.787Z,3.93
2018-08-31T19:27:36.069Z,4.07
2018-08-31T19:30:04.469Z,4.70
2018-08-31T19:32:32.871Z,3.80
2018-08-31T19:35:01.181Z,4.40
2018-08-31T19:37:29.453Z,4.33
2018-08-31T19:39:58.765Z,3.33
2018-08-31T19:42:27.017Z,3.73
2018-08-31T19:44:55.305Z,3.87
2018-08-31T19:47:23.581Z,3.57
2018-08-31T19:49:52.037Z,5.00
2018-08-31T19:52:20.321Z,3.83
2018-08-31T19:54:48.645Z,3.70
2018-08-31T19:57:16.894Z,4.57
2018-08-31T19:59:45.177Z,4.40
2018-08-31T20:02:13.498Z,4.43
2018-08-31T20:04:41.858Z,4.13
2018-08-31T20:07:10.219Z,3.83
2018-08-31T20:09:38.505Z,5.23
2018-08-31T20:12:06.817Z,4.27
2018-08-31T20:14:35.286Z,4.90
2018-08-31T20:17:03.729Z,4.83
2018-08-31T20:19:32.058Z,4.43
2018-08-31T20:22:01.421Z,5.20
2018-08-31T20:24:29.761Z,3.83
2018-08-31T20:26:58.067Z,4.50
2018-08-31T20:29:26.341Z,4.03
2018-08-31T20:31:54.677Z,5.20
2018-08-31T20:34:22.953Z,3.47
2018-08-31T20:36:51.251Z,4.50
2018-08-31T20:39:20.627Z,3.53
2018-08-31T20:41:48.963Z,4.87
2018-08-31T20:44:17.253Z,6.03
2018-08-31T20:46:45.527Z,6.27
2018-08-31T20:49:13.777Z,4.47
2018-08-31T20:51:43.114Z,3.93
2018-08-31T20:54:12.423Z,4.40
2018-08-31T20:56:41.821Z,4.27
2018-08-31T20:59:11.236Z,4.47
2018-08-31T21:01:40.637Z,3.83
2018-08-31T21:04:08.893Z,6.70
2018-08-31T21:06:38.234Z,6.43
2018-08-31T21:09:08.680Z,4.60
2018-08-31T21:11:36.977Z,4.80
2018-08-31T21:14:05.257Z,4.87
2018-08-31T21:16:33.757Z,4.57
2018-08-31T21:19:03.424Z,6.73
2018-08-31T21:21:31.732Z,5.30
2018-08-31T21:24:00.038Z,4.60
2018-08-31T21:26:28.404Z,4.27
2018-08-31T21:28:56.660Z,4.23
2018-08-31T21:31:25.063Z,6.63
2018-08-31T21:33:53.432Z,4.70
2018-08-31T21:36:21.689Z,4.23
2018-08-31T21:38:49.972Z,4.33
2018-08-31T21:41:19.265Z,5.70
2018-08-31T21:43:47.537Z,5.23
2018-08-31T21:46:15.826Z,4.73
2018-08-31T21:48:45.309Z,4.10
2018-08-31T21:51:13.621Z,4.83
2018-08-31T21:53:41.901Z,4.83
2018-08-31T21:56:10.221Z,4.30
2018-08-31T21:58:38.540Z,4.37
2018-08-31T22:01:12.013Z,5.90
2018-08-31T22:03:40.392Z,4.50
2018-08-31T22:06:08.652Z,4.60
2018-08-31T22:08:36.969Z,5.73
2018-08-31T22:11:05.611Z,5.33
2018-08-31T22:13:34.025Z,6.00
2018-08-31T22:16:03.417Z,5.00
2018-08-31T22:18:31.684Z,4.70
2018-08-31T22:21:00.038Z,5.13
2018-08-31T22:23:29.359Z,6.00
2018-08-31T22:25:57.691Z,5.27
2018-08-31T22:28:25.945Z,4.83
2018-08-31T22:30:54.261Z,4.77
2018-08-31T22:33:22.557Z,6.70
2018-08-31T22:35:51.886Z,5.10
2018-08-31T22:38:20.137Z,4.60
2018-08-31T22:40:48.406Z,4.83
2018-08-31T22:43:16.663Z,5.30
2018-08-31T22:45:44.955Z,5.13
2018-08-31T22:48:13.216Z,5.80
2018-08-31T22:50:42.509Z,5.10
2018-08-31T22:53:10.760Z,5.53
2018-08-31T22:55:39.042Z,5.60
2018-08-31T22:58:07.297Z,5.80
2018-08-31T23:00:35.593Z,5.80
2018-08-31T23:03:03.902Z,5.40
2018-08-31T23:05:32.170Z,4.97
2018-08-31T23:08:02.808Z,5.07
2018-08-31T23:10:31.744Z,5.43
2018-08-31T23:13:00.265Z,4.90
2018-08-31T23:15:29.718Z,5.60
2018-08-31T23:17:58.000Z,5.17
2018-08-31T23:20:27.337Z,5.73
2018-08-31T23:23:01.040Z,4.70
2018-08-31T23:25:35.843Z,4.70
2018-08-31T23:28:04.145Z,4.70
2018-08-31T23:30:32.557Z,4.77
2018-08-31T23:33:00.894Z,5.27
2018-08-31T23:35:29.237Z,4.60
2018-08-31T23:37:57.518Z,5.20
2018-08-31T23:40:26.974Z,5.20
2018-08-31T23:42:55.289Z,4.67
2018-08-31T23:45:23.531Z,4.50
2018-08-31T23:47:51.823Z,4.93
2018-08-31T23:50:20.113Z,5.37
2018-08-31T23:52:48.437Z,5.13
2018-08-31T23:55:16.693Z,4.23
2018-08-31T23:57:45.073Z,5.03
